Terminal Aerodrome Forecast
Issued by NWS

Home | Current Version | Previous Version | Graphics & Text | Print | Product List | Glossary On
Versions: 1 2 3 4 5 6 7 8 9 10 11 12 13 14
000
FTUS43 KFGF 250500
TAFBJI
TAF
KBJI 250524Z 2506/2606 VRB03KT P6SM SKC
     FM251000 VRB04KT P6SM OVC050
     FM251500 VRB04KT P6SM OVC025=

USA.gov is the U.S. government's official web portal to all federal, state and local government web resources and services.